Terminal Aerodrome Forecast
Issued by NWS Detroit/Pontiac, MI

Home | Current Version | Previous Version | Text Only | Print | Product List | Glossary On
Versions: 1 2 3 4 5 6 7 8 9 10 11 12 13 14 15 16 17 18 19 20 21 22 23 24 25 26 27 28 29
000
FTUS43 KDTX 211500 AAB
TAFDTW
TAF AMD
KDTW 211506Z 2115/2218 15006KT P6SM SCT040 BKN200
     FM211900 27007KT 6SM -SHRA SCT025 OVC045
     FM220100 VRB03KT 4SM SHRA BR OVC045
     FM221300 15005KT 3SM -SHRA BR OVC020=

USA.gov is the U.S. government's official web portal to all federal, state and local government web resources and services.